createdAt,value
2022-11-20T00:01:59.009Z,99.10
2022-11-20T00:04:29.508Z,99.80
2022-11-20T00:06:56.797Z,99.30
2022-11-20T00:09:24.389Z,99.90
2022-11-20T00:11:53.493Z,99.80
2022-11-20T00:14:20.894Z,99.70
2022-11-20T00:16:51.451Z,99.60
2022-11-20T00:19:19.040Z,99.60
2022-11-20T00:21:46.585Z,99.70
2022-11-20T00:24:14.674Z,99.50
2022-11-20T00:26:41.901Z,99.40
2022-11-20T00:29:10.913Z,99.40
2022-11-20T00:31:38.380Z,99.60
2022-11-20T00:34:05.824Z,99.50
2022-11-20T00:36:35.020Z,99.60
2022-11-20T00:39:02.796Z,99.40
2022-11-20T00:41:31.084Z,99.60
2022-11-20T00:44:01.152Z,99.50
2022-11-20T00:46:32.260Z,99.20
2022-11-20T00:48:59.641Z,99.60
2022-11-20T00:51:29.165Z,99.90
2022-11-20T00:54:01.024Z,99.60
2022-11-20T00:56:30.998Z,99.60
2022-11-20T00:59:02.026Z,99.30
2022-11-20T01:01:30.500Z,99.40
2022-11-20T01:04:00.889Z,99.40
2022-11-20T01:06:36.889Z,99.70
2022-11-20T01:09:08.736Z,99.30
2022-11-20T01:11:40.117Z,99.60
2022-11-20T01:14:11.303Z,99.40
2022-11-20T01:16:41.709Z,99.90
2022-11-20T01:19:17.379Z,99.90
2022-11-20T01:21:50.292Z,99.90
2022-11-20T01:24:21.952Z,99.90
2022-11-20T01:26:51.805Z,99.90
2022-11-20T01:29:25.579Z,99.80
2022-11-20T01:31:53.654Z,99.90
2022-11-20T01:34:23.960Z,99.90
2022-11-20T01:36:54.496Z,99.90
2022-11-20T01:39:26.384Z,99.90
2022-11-20T01:42:15.140Z,99.90
2022-11-20T01:44:53.280Z,99.90
2022-11-20T01:47:35.825Z,99.80
2022-11-20T01:50:11.820Z,99.90
2022-11-20T01:52:47.484Z,99.80
2022-11-20T01:55:22.955Z,99.90
2022-11-20T01:57:53.045Z,99.90
2022-11-20T02:00:21.973Z,99.90
2022-11-20T02:02:54.504Z,99.90
2022-11-20T02:05:28.534Z,99.80
2022-11-20T02:07:58.944Z,99.90
2022-11-20T02:10:27.968Z,99.90
2022-11-20T02:13:14.221Z,99.90
2022-11-20T02:15:46.834Z,99.90
2022-11-20T02:18:18.400Z,99.90
2022-11-20T02:20:48.684Z,99.90
2022-11-20T02:23:46.032Z,99.90
2022-11-20T02:26:16.784Z,99.90
2022-11-20T02:28:45.791Z,99.90
2022-11-20T02:31:13.305Z,99.90
2022-11-20T02:33:40.521Z,99.90
2022-11-20T02:36:14.709Z,99.90
2022-11-20T02:38:44.054Z,99.90
2022-11-20T02:41:13.528Z,99.90
2022-11-20T02:43:40.577Z,99.90
2022-11-20T02:46:09.053Z,99.90
2022-11-20T02:48:38.436Z,99.90
2022-11-20T02:51:05.842Z,99.90
2022-11-20T02:53:33.011Z,99.90
2022-11-20T02:56:02.959Z,99.90
2022-11-20T02:58:30.018Z,99.90
2022-11-20T03:00:57.537Z,99.90
2022-11-20T03:03:24.696Z,99.90
2022-11-20T03:05:52.082Z,99.90
2022-11-20T03:08:19.222Z,99.90
2022-11-20T03:10:46.619Z,99.90
2022-11-20T03:13:13.667Z,99.90
2022-11-20T03:15:41.036Z,99.90
2022-11-20T03:18:08.138Z,99.90
2022-11-20T03:20:35.617Z,99.90
2022-11-20T03:23:02.851Z,99.90
2022-11-20T03:25:32.632Z,99.90
2022-11-20T03:27:59.696Z,99.90
2022-11-20T03:30:30.875Z,99.90
2022-11-20T03:32:58.164Z,99.90
2022-11-20T03:35:25.584Z,99.90
2022-11-20T03:37:52.787Z,99.90
2022-11-20T03:40:20.188Z,99.90
2022-11-20T03:42:47.312Z,99.90
2022-11-20T03:45:16.790Z,99.90
2022-11-20T03:47:46.992Z,99.90
2022-11-20T03:50:19.701Z,99.90
2022-11-20T03:52:46.809Z,99.90
2022-11-20T03:55:16.564Z,99.90
2022-11-20T03:57:43.761Z,99.90
2022-11-20T04:00:11.726Z,99.90
2022-11-20T04:02:41.105Z,99.90
2022-11-20T04:05:13.036Z,99.90
2022-11-20T04:07:40.113Z,99.90
2022-11-20T04:10:07.909Z,99.90
2022-11-20T04:12:37.601Z,99.90
2022-11-20T04:15:08.312Z,99.90
2022-11-20T04:17:37.991Z,99.90
2022-11-20T04:20:10.597Z,99.90
2022-11-20T04:22:37.732Z,99.90
2022-11-20T04:25:05.506Z,99.90
2022-11-20T04:27:34.788Z,99.90
2022-11-20T04:30:02.232Z,99.90
2022-11-20T04:32:31.493Z,99.90
2022-11-20T04:34:58.929Z,99.90
2022-11-20T04:37:28.472Z,99.90
2022-11-20T04:39:56.008Z,99.90
2022-11-20T04:42:32.067Z,99.90
2022-11-20T04:45:01.925Z,99.90
2022-11-20T04:47:29.040Z,99.90
2022-11-20T04:49:56.521Z,99.90
2022-11-20T04:52:26.040Z,99.90
2022-11-20T04:54:55.843Z,99.90
2022-11-20T04:57:23.057Z,99.90
2022-11-20T04:59:50.425Z,99.90
2022-11-20T05:02:21.091Z,99.90
2022-11-20T05:04:53.091Z,99.90
2022-11-20T05:07:20.220Z,99.90
2022-11-20T05:09:49.744Z,99.90
2022-11-20T05:12:19.530Z,99.90
2022-11-20T05:14:49.017Z,99.90
2022-11-20T05:17:22.975Z,99.90
2022-11-20T05:19:53.112Z,99.90
2022-11-20T05:22:20.621Z,99.90
2022-11-20T05:24:47.940Z,99.90
2022-11-20T05:27:15.142Z,99.90
2022-11-20T05:29:42.505Z,99.90
2022-11-20T05:32:11.785Z,99.90
2022-11-20T05:34:41.656Z,99.90
2022-11-20T05:37:11.293Z,99.90
2022-11-20T05:39:40.892Z,99.90
2022-11-20T05:42:26.852Z,99.90
2022-11-20T05:44:54.276Z,99.90
2022-11-20T05:47:21.429Z,99.90
2022-11-20T05:49:48.866Z,99.90
2022-11-20T05:52:15.899Z,99.90
2022-11-20T05:54:48.133Z,99.90
2022-11-20T05:57:15.926Z,99.90
2022-11-20T05:59:43.665Z,99.90
2022-11-20T06:02:10.809Z,99.90
2022-11-20T06:04:39.949Z,99.90
2022-11-20T06:07:09.796Z,99.90
2022-11-20T06:09:37.233Z,99.90
2022-11-20T06:12:04.632Z,99.90
2022-11-20T06:14:32.223Z,99.90
2022-11-20T06:16:59.446Z,99.90
2022-11-20T06:19:33.864Z,99.90
2022-11-20T06:22:05.912Z,99.90
2022-11-20T06:24:33.259Z,99.90
2022-11-20T06:27:00.337Z,99.90
2022-11-20T06:29:31.415Z,99.90
2022-11-20T06:32:01.108Z,99.90
2022-11-20T06:34:28.616Z,99.90
2022-11-20T06:36:55.717Z,99.90
2022-11-20T06:39:25.361Z,99.90
2022-11-20T06:41:58.396Z,99.90
2022-11-20T06:44:29.257Z,99.90
2022-11-20T06:46:56.433Z,99.90
2022-11-20T06:49:24.040Z,99.90
2022-11-20T06:51:53.648Z,99.90
2022-11-20T06:54:21.212Z,99.90
2022-11-20T06:56:49.113Z,99.90
2022-11-20T06:59:16.491Z,99.90
2022-11-20T07:01:45.876Z,99.90
2022-11-20T07:04:17.517Z,99.90
2022-11-20T07:06:46.829Z,99.90
2022-11-20T07:09:16.240Z,99.90
2022-11-20T07:11:43.290Z,99.90
2022-11-20T07:14:11.452Z,99.90
2022-11-20T07:16:38.647Z,99.90
2022-11-20T07:19:08.584Z,99.90
2022-11-20T07:21:40.680Z,99.90
2022-11-20T07:24:08.083Z,99.90
2022-11-20T07:26:37.388Z,99.90
2022-11-20T07:29:04.904Z,99.90
2022-11-20T07:31:32.026Z,99.90
2022-11-20T07:34:01.821Z,99.90
2022-11-20T07:36:28.874Z,99.90
2022-11-20T07:38:58.360Z,99.90
2022-11-20T07:41:30.164Z,99.90
2022-11-20T07:43:57.480Z,99.90
2022-11-20T07:46:29.397Z,99.90
2022-11-20T07:48:59.125Z,99.90
2022-11-20T07:51:27.005Z,99.90
2022-11-20T07:53:54.436Z,99.90
2022-11-20T07:56:23.945Z,99.90
2022-11-20T07:58:51.285Z,99.90
2022-11-20T08:01:21.247Z,99.90
2022-11-20T08:03:51.155Z,99.90
2022-11-20T08:06:19.565Z,99.90
2022-11-20T08:08:49.433Z,99.90
2022-11-20T08:11:37.235Z,99.90
2022-11-20T08:14:14.527Z,99.90
2022-11-20T08:16:43.784Z,99.90
2022-11-20T08:19:12.652Z,99.90
2022-11-20T08:21:44.452Z,99.90
2022-11-20T08:24:14.472Z,99.90
2022-11-20T08:26:42.070Z,99.90
2022-11-20T08:29:09.630Z,99.90
2022-11-20T08:31:37.197Z,99.90
2022-11-20T08:34:26.771Z,99.90
2022-11-20T08:36:56.198Z,99.90
2022-11-20T08:39:23.894Z,99.90
2022-11-20T08:41:53.532Z,99.90
2022-11-20T08:44:24.827Z,99.90
2022-11-20T08:46:51.904Z,99.90
2022-11-20T08:49:22.860Z,99.90
2022-11-20T08:51:54.653Z,99.90
2022-11-20T08:54:22.986Z,99.90
2022-11-20T08:56:50.246Z,99.90
2022-11-20T08:59:31.619Z,99.90
2022-11-20T09:02:04.775Z,99.90
2022-11-20T09:04:34.397Z,99.90
2022-11-20T09:07:04.264Z,99.90
2022-11-20T09:09:34.414Z,99.90
2022-11-20T09:12:01.530Z,99.90
2022-11-20T09:14:31.023Z,99.90
2022-11-20T09:16:58.665Z,99.90
2022-11-20T09:19:36.438Z,99.90
2022-11-20T09:22:04.097Z,99.90
2022-11-20T09:24:38.984Z,99.90
2022-11-20T09:27:06.324Z,99.90
2022-11-20T09:29:33.702Z,99.90
2022-11-20T09:32:00.821Z,99.90
2022-11-20T09:34:28.793Z,99.90
2022-11-20T09:36:55.876Z,99.90
2022-11-20T09:39:23.603Z,99.80
2022-11-20T09:42:16.724Z,99.50
2022-11-20T09:45:03.296Z,99.50
2022-11-20T09:47:55.733Z,99.10
2022-11-20T09:50:50.380Z,98.50
2022-11-20T09:54:02.101Z,98.40
2022-11-20T09:56:37.724Z,98.50
2022-11-20T09:59:07.519Z,98.40
2022-11-20T10:01:41.731Z,98.70
2022-11-20T10:04:18.999Z,98.30
2022-11-20T10:07:38.059Z,97.90
2022-11-20T10:10:06.498Z,98.00
2022-11-20T10:13:03.428Z,97.50
2022-11-20T10:15:59.481Z,96.20
2022-11-20T10:18:46.306Z,95.20
2022-11-20T10:21:25.298Z,95.70
2022-11-20T10:24:24.917Z,95.60
2022-11-20T10:27:01.048Z,95.00
2022-11-20T10:29:35.743Z,94.40
2022-11-20T10:32:08.230Z,93.90
2022-11-20T10:34:53.198Z,94.00
2022-11-20T10:37:28.633Z,93.90
2022-11-20T10:40:04.350Z,93.70
2022-11-20T10:42:38.956Z,93.70
2022-11-20T10:45:40.613Z,93.50
2022-11-20T10:48:17.648Z,93.00
2022-11-20T10:50:56.418Z,92.60
2022-11-20T10:53:52.132Z,92.70
2022-11-20T10:56:35.960Z,92.40
2022-11-20T10:59:42.812Z,92.80
2022-11-20T11:02:35.177Z,93.10
2022-11-20T11:05:14.694Z,92.00
2022-11-20T11:07:49.982Z,92.00
2022-11-20T11:10:24.196Z,92.00
2022-11-20T11:12:53.807Z,91.70
2022-11-20T11:15:39.561Z,91.70
2022-11-20T11:18:11.269Z,91.70
2022-11-20T11:20:39.173Z,91.30
2022-11-20T11:23:42.462Z,90.50
2022-11-20T11:26:27.079Z,90.50
2022-11-20T11:29:05.541Z,90.60
2022-11-20T11:31:39.365Z,90.20
2022-11-20T11:34:15.293Z,89.30
2022-11-20T11:36:50.215Z,86.40
2022-11-20T11:39:22.905Z,87.10
2022-11-20T11:41:50.855Z,87.80
2022-11-20T11:44:43.949Z,88.80
2022-11-20T11:47:37.396Z,89.70
2022-11-20T11:50:10.666Z,90.10
2022-11-20T11:53:03.956Z,89.00
2022-11-20T11:55:53.259Z,88.90
2022-11-20T11:58:36.181Z,88.40
2022-11-20T12:01:32.880Z,88.30
2022-11-20T12:04:14.562Z,87.40
2022-11-20T12:06:46.398Z,87.70
2022-11-20T12:09:21.343Z,88.40
2022-11-20T12:11:59.947Z,88.40
2022-11-20T12:14:41.702Z,88.00
2022-11-20T12:17:14.574Z,88.50
2022-11-20T12:19:41.974Z,89.20
2022-11-20T12:22:27.147Z,87.70
2022-11-20T12:25:17.683Z,87.90
2022-11-20T12:28:37.486Z,87.80
2022-11-20T12:31:34.893Z,87.90
2022-11-20T12:34:15.506Z,87.40
2022-11-20T12:36:53.160Z,88.70
2022-11-20T12:39:41.870Z,88.30
2022-11-20T12:42:41.373Z,88.10
2022-11-20T12:45:33.661Z,89.30
2022-11-20T12:48:43.549Z,90.10
2022-11-20T12:51:16.336Z,90.00
2022-11-20T12:54:09.701Z,90.30
2022-11-20T12:56:51.340Z,90.50
2022-11-20T12:59:33.575Z,90.20
2022-11-20T13:02:28.518Z,90.60
2022-11-20T13:05:22.556Z,90.70
2022-11-20T13:07:54.992Z,90.90
2022-11-20T13:10:36.924Z,90.70
2022-11-20T13:13:29.877Z,90.50
2022-11-20T13:16:02.277Z,90.20
2022-11-20T13:18:34.989Z,90.30
2022-11-20T13:21:02.240Z,90.50
2022-11-20T13:23:29.829Z,90.70
2022-11-20T13:26:19.907Z,90.70
2022-11-20T13:29:03.949Z,91.10
2022-11-20T13:31:37.465Z,90.70
2022-11-20T13:34:25.652Z,91.80
2022-11-20T13:36:57.713Z,91.50
2022-11-20T13:39:34.825Z,91.20
2022-11-20T13:42:14.078Z,91.60
2022-11-20T13:44:52.151Z,91.90
2022-11-20T13:47:28.687Z,92.40
2022-11-20T13:49:58.885Z,92.20
2022-11-20T13:53:04.957Z,92.60
2022-11-20T13:55:52.118Z,92.90
2022-11-20T13:58:54.517Z,93.40
2022-11-20T14:01:29.982Z,93.90
2022-11-20T14:04:09.977Z,94.50
2022-11-20T14:06:46.414Z,94.90
2022-11-20T14:09:30.601Z,95.30
2022-11-20T14:11:58.733Z,95.40
2022-11-20T14:14:30.960Z,95.60
2022-11-20T14:17:28.810Z,96.10
2022-11-20T14:19:59.754Z,96.40
2022-11-20T14:22:28.335Z,96.80
2022-11-20T14:25:06.503Z,97.20
2022-11-20T14:27:42.229Z,97.50
2022-11-20T14:30:45.689Z,97.90
2022-11-20T14:33:16.314Z,98.40
2022-11-20T14:35:54.701Z,98.70
2022-11-20T14:38:32.318Z,99.00
2022-11-20T14:41:23.058Z,99.60
2022-11-20T14:44:00.795Z,99.60
2022-11-20T14:46:33.252Z,99.90
2022-11-20T14:49:05.791Z,99.90
2022-11-20T14:51:42.492Z,99.90
2022-11-20T14:54:18.462Z,99.90
2022-11-20T14:57:02.488Z,99.90
2022-11-20T14:59:35.703Z,99.90
2022-11-20T15:02:09.839Z,99.90
2022-11-20T15:05:07.376Z,99.90
2022-11-20T15:07:46.487Z,99.90
2022-11-20T15:10:22.425Z,99.90
2022-11-20T15:12:53.678Z,99.90
2022-11-20T15:15:36.464Z,99.90
2022-11-20T15:18:24.117Z,99.90
2022-11-20T15:20:52.840Z,99.90
2022-11-20T15:23:22.446Z,99.90
2022-11-20T15:25:52.744Z,99.90
2022-11-20T15:28:42.183Z,99.90
2022-11-20T15:31:19.656Z,99.90
2022-11-20T15:33:52.533Z,99.90
2022-11-20T15:36:19.995Z,99.90
2022-11-20T15:38:47.680Z,99.90
2022-11-20T15:41:17.709Z,99.90
2022-11-20T15:43:52.160Z,99.90
2022-11-20T15:46:27.822Z,99.90
2022-11-20T15:49:00.585Z,99.90
2022-11-20T15:51:47.589Z,99.90
2022-11-20T15:54:22.166Z,99.90
2022-11-20T15:56:55.460Z,99.90
2022-11-20T15:59:22.899Z,99.90
2022-11-20T16:01:52.619Z,99.90
2022-11-20T16:04:20.041Z,99.90
2022-11-20T16:06:51.826Z,99.90
2022-11-20T16:09:19.687Z,99.90
2022-11-20T16:11:47.119Z,99.90
2022-11-20T16:14:34.916Z,99.90
2022-11-20T16:17:04.539Z,99.90
2022-11-20T16:19:31.794Z,99.90
2022-11-20T16:22:03.114Z,99.90
2022-11-20T16:24:31.207Z,99.90
2022-11-20T16:26:58.535Z,99.90
2022-11-20T16:29:28.031Z,99.90
2022-11-20T16:31:55.840Z,99.90
2022-11-20T16:34:22.967Z,99.90
2022-11-20T16:36:50.354Z,99.90
2022-11-20T16:39:23.087Z,99.90
2022-11-20T16:41:53.403Z,99.90
2022-11-20T16:44:23.186Z,99.90
2022-11-20T16:46:50.777Z,99.90
2022-11-20T16:49:20.967Z,99.90
2022-11-20T16:51:50.629Z,99.90
2022-11-20T16:54:22.616Z,99.90
2022-11-20T16:56:54.218Z,99.90
2022-11-20T16:59:24.058Z,99.90
2022-11-20T17:01:51.517Z,99.90
2022-11-20T17:04:18.898Z,99.90
2022-11-20T17:06:51.381Z,99.90
2022-11-20T17:09:19.104Z,99.90
2022-11-20T17:11:49.391Z,99.90
2022-11-20T17:14:16.576Z,99.90
2022-11-20T17:16:49.294Z,99.90
2022-11-20T17:19:21.218Z,99.90
2022-11-20T17:21:48.809Z,99.90
2022-11-20T17:24:18.425Z,99.90
2022-11-20T17:26:49.445Z,99.90
2022-11-20T17:29:24.262Z,99.90
2022-11-20T17:31:55.048Z,99.90
2022-11-20T17:34:29.120Z,99.90
2022-11-20T17:36:56.562Z,99.90
2022-11-20T17:39:28.235Z,99.90
2022-11-20T17:42:14.256Z,99.90
2022-11-20T17:44:42.902Z,99.90
2022-11-20T17:47:12.827Z,99.90
2022-11-20T17:49:42.348Z,99.90
2022-11-20T17:52:09.808Z,99.90
2022-11-20T17:54:39.451Z,99.90
2022-11-20T17:57:28.556Z,99.90
2022-11-20T17:59:57.982Z,99.90
2022-11-20T18:02:27.892Z,99.90
2022-11-20T18:04:55.084Z,99.90
2022-11-20T18:07:25.260Z,99.90
2022-11-20T18:09:52.621Z,99.90
2022-11-20T18:12:20.071Z,99.90
2022-11-20T18:14:49.501Z,99.90
2022-11-20T18:17:21.736Z,99.90
2022-11-20T18:20:14.229Z,99.90
2022-11-20T18:22:40.367Z,99.90
2022-11-20T18:25:09.060Z,99.90
2022-11-20T18:27:39.254Z,99.90
2022-11-20T18:30:07.274Z,99.90
2022-11-20T18:32:36.177Z,99.90
2022-11-20T18:35:06.612Z,99.90
2022-11-20T18:37:34.081Z,99.90
2022-11-20T18:40:05.748Z,99.90
2022-11-20T18:42:52.023Z,99.90
2022-11-20T18:45:21.818Z,99.90
2022-11-20T18:47:52.012Z,99.90
2022-11-20T18:50:19.241Z,99.90
2022-11-20T18:52:48.018Z,99.90
2022-11-20T18:55:17.868Z,99.90
2022-11-20T18:57:45.441Z,99.90
2022-11-20T19:00:17.906Z,99.90
2022-11-20T19:02:45.536Z,99.90
2022-11-20T19:05:14.462Z,99.90
2022-11-20T19:07:42.628Z,99.90
2022-11-20T19:10:11.424Z,99.90
2022-11-20T19:12:43.638Z,99.90
2022-11-20T19:15:13.924Z,99.90
2022-11-20T19:17:41.572Z,99.90
2022-11-20T19:20:15.515Z,99.90
2022-11-20T19:22:43.069Z,99.90
2022-11-20T19:25:10.992Z,99.90
2022-11-20T19:27:40.656Z,99.90
2022-11-20T19:30:10.834Z,99.90
2022-11-20T19:32:38.270Z,99.90
2022-11-20T19:35:10.992Z,99.90
2022-11-20T19:37:45.666Z,99.90
2022-11-20T19:40:13.194Z,99.90
2022-11-20T19:42:40.759Z,99.90
2022-11-20T19:45:11.654Z,99.90
2022-11-20T19:48:06.480Z,99.90
2022-11-20T19:50:28.621Z,99.90
2022-11-20T19:52:59.041Z,99.90
2022-11-20T19:55:28.633Z,99.90
2022-11-20T19:57:56.610Z,99.90
2022-11-20T20:00:29.704Z,99.90
2022-11-20T20:03:09.637Z,99.90
2022-11-20T20:05:43.873Z,99.90
2022-11-20T20:08:17.402Z,99.90
2022-11-20T20:10:54.276Z,99.90
2022-11-20T20:13:31.246Z,99.90
2022-11-20T20:16:07.953Z,99.90
2022-11-20T20:18:38.152Z,99.90
2022-11-20T20:21:11.095Z,99.90
2022-11-20T20:23:52.154Z,99.90
2022-11-20T20:26:20.097Z,99.90
2022-11-20T20:28:52.762Z,99.90
2022-11-20T20:31:29.901Z,99.90
2022-11-20T20:34:06.787Z,99.90
2022-11-20T20:36:40.056Z,99.90
2022-11-20T20:39:13.607Z,99.90
2022-11-20T20:41:43.224Z,99.90
2022-11-20T20:44:36.520Z,99.90
2022-11-20T20:47:09.610Z,99.90
2022-11-20T20:49:37.221Z,99.90
2022-11-20T20:52:08.285Z,99.90
2022-11-20T20:54:42.267Z,99.90
2022-11-20T20:57:15.273Z,99.90
2022-11-20T20:59:45.356Z,99.90
2022-11-20T21:02:13.212Z,99.90
2022-11-20T21:04:41.268Z,99.90
2022-11-20T21:07:08.614Z,99.90
2022-11-20T21:09:37.867Z,99.90
2022-11-20T21:12:10.127Z,99.90
2022-11-20T21:14:47.104Z,99.90
2022-11-20T21:17:17.491Z,99.90
2022-11-20T21:19:48.249Z,99.90
2022-11-20T21:22:15.326Z,99.90
2022-11-20T21:24:45.767Z,99.90
2022-11-20T21:27:13.628Z,99.90
2022-11-20T21:29:41.565Z,99.90
2022-11-20T21:32:10.961Z,99.90
2022-11-20T21:34:41.029Z,99.90
2022-11-20T21:37:10.789Z,99.90
2022-11-20T21:39:50.750Z,99.90
2022-11-20T21:42:18.199Z,99.90
2022-11-20T21:44:52.940Z,99.90
2022-11-20T21:47:22.352Z,99.90
2022-11-20T21:49:52.562Z,99.90
2022-11-20T21:52:29.967Z,99.90
2022-11-20T21:54:57.538Z,99.90
2022-11-20T21:57:30.957Z,99.90
2022-11-20T22:00:03.034Z,99.90
2022-11-20T22:02:43.735Z,99.90
2022-11-20T22:05:15.976Z,99.90
2022-11-20T22:07:48.587Z,99.90
2022-11-20T22:10:18.626Z,99.90
2022-11-20T22:12:46.083Z,99.90
2022-11-20T22:15:13.908Z,99.90
2022-11-20T22:18:00.407Z,99.90
2022-11-20T22:20:32.587Z,99.90
2022-11-20T22:23:04.192Z,99.90
2022-11-20T22:25:33.468Z,99.90
2022-11-20T22:28:00.943Z,99.90
2022-11-20T22:30:33.190Z,99.90
2022-11-20T22:33:00.341Z,99.90
2022-11-20T22:35:32.566Z,99.90
2022-11-20T22:38:04.268Z,99.90
2022-11-20T22:40:34.382Z,99.90
2022-11-20T22:43:06.808Z,99.90
2022-11-20T22:45:34.277Z,99.90
2022-11-20T22:48:01.323Z,99.90
2022-11-20T22:50:28.745Z,99.90
2022-11-20T22:52:56.140Z,99.90
2022-11-20T22:55:23.546Z,99.90
2022-11-20T22:57:53.042Z,99.90
2022-11-20T23:00:22.905Z,99.90
2022-11-20T23:02:52.965Z,99.90
2022-11-20T23:05:22.597Z,99.90
2022-11-20T23:07:52.741Z,99.90
2022-11-20T23:10:22.180Z,99.90
2022-11-20T23:12:57.089Z,99.90
2022-11-20T23:15:26.803Z,99.90
2022-11-20T23:17:56.543Z,99.90
2022-11-20T23:20:24.134Z,99.90
2022-11-20T23:22:51.202Z,99.90
2022-11-20T23:25:21.655Z,99.90
2022-11-20T23:27:49.078Z,99.90
2022-11-20T23:30:18.791Z,99.90
2022-11-20T23:32:48.646Z,99.90
2022-11-20T23:35:18.244Z,99.90
2022-11-20T23:37:45.304Z,99.90
2022-11-20T23:40:13.414Z,99.90
2022-11-20T23:43:00.612Z,99.90
2022-11-20T23:45:37.580Z,99.90
2022-11-20T23:48:05.164Z,99.90
2022-11-20T23:50:32.787Z,99.90
2022-11-20T23:53:04.881Z,99.90
2022-11-20T23:55:32.557Z,99.90
2022-11-20T23:58:03.345Z,99.90
